createdAt,value
2017-09-06T00:02:14.562Z,10.87
2017-09-06T00:04:42.080Z,10.83
2017-09-06T00:07:09.665Z,11.40
2017-09-06T00:09:37.176Z,11.07
2017-09-06T00:12:04.751Z,10.10
2017-09-06T00:14:32.273Z,12.13
2017-09-06T00:16:59.782Z,14.20
2017-09-06T00:19:27.311Z,13.93
2017-09-06T00:21:54.880Z,13.07
2017-09-06T00:24:22.398Z,12.90
2017-09-06T00:26:49.950Z,14.07
2017-09-06T00:29:17.484Z,14.53
2017-09-06T00:31:45.039Z,14.00
2017-09-06T00:34:12.547Z,14.27
2017-09-06T00:36:40.076Z,12.40
2017-09-06T00:39:07.646Z,15.68
2017-09-06T00:41:35.160Z,15.32
2017-09-06T00:44:02.695Z,13.85
2017-09-06T00:46:30.202Z,14.40
2017-09-06T00:48:57.734Z,13.70
2017-09-06T00:51:25.259Z,14.47
2017-09-06T00:53:52.796Z,15.02
2017-09-06T00:56:20.311Z,15.05
2017-09-06T00:58:47.851Z,16.77
2017-09-06T01:01:15.411Z,15.70
2017-09-06T01:03:42.971Z,14.02
2017-09-06T01:06:10.494Z,16.42
2017-09-06T01:08:38.033Z,15.55
2017-09-06T01:11:05.555Z,15.13
2017-09-06T01:13:33.063Z,15.68
2017-09-06T01:16:00.588Z,16.20
2017-09-06T01:18:28.108Z,15.90
2017-09-06T01:20:55.654Z,17.10
2017-09-06T01:23:23.204Z,16.48
2017-09-06T01:25:50.735Z,15.30
2017-09-06T01:28:18.254Z,15.82
2017-09-06T01:30:45.766Z,15.70
2017-09-06T01:33:13.291Z,16.73
2017-09-06T01:35:40.823Z,15.35
2017-09-06T01:38:08.336Z,16.90
2017-09-06T01:40:35.892Z,16.60
2017-09-06T01:43:03.415Z,14.93
2017-09-06T01:45:30.956Z,16.05
2017-09-06T01:47:58.513Z,16.08
2017-09-06T01:50:26.104Z,15.00
2017-09-06T01:52:53.627Z,15.93
2017-09-06T01:55:21.138Z,15.85
2017-09-06T01:57:48.684Z,14.77
2017-09-06T02:00:16.213Z,15.52
2017-09-06T02:02:43.721Z,16.83
2017-09-06T02:05:11.668Z,15.90
2017-09-06T02:07:39.185Z,16.50
2017-09-06T02:10:06.690Z,16.37
2017-09-06T02:12:34.211Z,17.02
2017-09-06T02:15:01.713Z,15.20
2017-09-06T02:17:29.252Z,15.50
2017-09-06T02:19:56.780Z,14.35
2017-09-06T02:22:24.288Z,15.18
2017-09-06T02:24:51.807Z,14.60
2017-09-06T02:27:19.336Z,15.88
2017-09-06T02:29:46.890Z,17.50
2017-09-06T02:32:14.401Z,16.67
2017-09-06T02:34:41.929Z,17.73
2017-09-06T02:37:09.435Z,16.98
2017-09-06T02:39:36.947Z,16.35
2017-09-06T02:42:06.073Z,15.32
2017-09-06T02:44:33.602Z,16.73
2017-09-06T02:47:01.117Z,15.10
2017-09-06T02:49:28.645Z,15.32
2017-09-06T02:51:56.138Z,17.00
2017-09-06T02:54:23.674Z,13.70
2017-09-06T02:56:51.276Z,16.43
2017-09-06T02:59:18.795Z,14.87
2017-09-06T03:01:46.315Z,16.00
2017-09-06T03:04:13.866Z,16.27
2017-09-06T03:06:41.369Z,14.83
2017-09-06T03:09:08.897Z,15.45
2017-09-06T03:11:36.416Z,17.70
2017-09-06T03:14:03.925Z,16.70
2017-09-06T03:16:31.437Z,17.70
2017-09-06T03:18:58.997Z,14.90
2017-09-06T03:21:26.556Z,23.67
2017-09-06T03:23:54.051Z,25.67
2017-09-06T03:26:21.575Z,17.73
2017-09-06T03:28:49.104Z,18.75
2017-09-06T03:31:16.636Z,16.93
2017-09-06T03:33:44.179Z,18.43
2017-09-06T03:36:11.703Z,17.65
2017-09-06T03:38:39.219Z,17.42
2017-09-06T03:41:06.769Z,15.65
2017-09-06T03:43:34.292Z,19.33
2017-09-06T03:46:01.819Z,18.93
2017-09-06T03:48:29.359Z,16.60
2017-09-06T03:50:56.897Z,16.52
2017-09-06T03:53:24.438Z,18.17
2017-09-06T03:55:51.960Z,17.60
2017-09-06T03:58:19.514Z,18.13
2017-09-06T04:00:47.053Z,18.62
2017-09-06T04:03:14.561Z,18.00
2017-09-06T04:05:42.101Z,18.55
2017-09-06T04:08:09.631Z,17.00
2017-09-06T04:10:37.146Z,18.37
2017-09-06T04:13:04.652Z,18.77
2017-09-06T04:15:32.192Z,19.10
2017-09-06T04:17:59.735Z,16.98
2017-09-06T04:20:27.264Z,19.58
2017-09-06T04:22:54.788Z,19.55
2017-09-06T04:25:22.323Z,17.57
2017-09-06T04:27:49.831Z,18.20
2017-09-06T04:30:17.364Z,18.60
2017-09-06T04:32:44.889Z,18.10
2017-09-06T04:35:12.416Z,20.60
2017-09-06T04:37:39.935Z,18.60
2017-09-06T04:40:07.461Z,19.48
2017-09-06T04:42:34.980Z,18.20
2017-09-06T04:45:02.537Z,17.00
2017-09-06T04:47:30.188Z,17.40
2017-09-06T04:49:57.752Z,15.23
2017-09-06T04:52:25.354Z,13.90
2017-09-06T04:54:52.948Z,17.33
2017-09-06T04:57:20.448Z,16.03
2017-09-06T04:59:47.973Z,14.60
2017-09-06T05:02:15.497Z,16.60
2017-09-06T05:04:43.209Z,15.68
2017-09-06T05:07:10.880Z,15.20
2017-09-06T05:09:38.403Z,14.30
2017-09-06T05:12:05.951Z,17.40
2017-09-06T05:14:33.449Z,13.00
2017-09-06T05:17:01.016Z,13.75
2017-09-06T05:19:30.530Z,14.27
2017-09-06T05:21:58.069Z,13.55
2017-09-06T05:24:25.643Z,13.82
2017-09-06T05:26:53.200Z,14.27
2017-09-06T05:29:20.807Z,13.93
2017-09-06T05:31:48.361Z,14.50
2017-09-06T05:34:15.866Z,15.25
2017-09-06T05:36:43.457Z,15.82
2017-09-06T05:39:10.974Z,14.82
2017-09-06T05:41:38.566Z,14.38
2017-09-06T05:44:06.094Z,13.60
2017-09-06T05:46:33.635Z,14.13
2017-09-06T05:49:01.224Z,12.07
2017-09-06T05:51:28.768Z,12.93
2017-09-06T05:53:56.306Z,13.27
2017-09-06T05:56:23.894Z,13.07
2017-09-06T05:58:51.485Z,12.17
2017-09-06T06:01:19.018Z,12.60
2017-09-06T06:03:46.551Z,11.43
2017-09-06T06:06:14.088Z,12.32
2017-09-06T06:08:41.615Z,12.37
2017-09-06T06:11:09.193Z,14.32
2017-09-06T06:13:36.764Z,13.98
2017-09-06T06:16:04.294Z,11.65
2017-09-06T06:18:31.811Z,13.75
2017-09-06T06:20:59.329Z,8.43
2017-09-06T06:23:26.863Z,8.98
2017-09-06T06:25:54.392Z,6.97
2017-09-06T06:28:22.452Z,5.85
2017-09-06T06:30:50.085Z,6.00
2017-09-06T06:33:17.649Z,5.70
2017-09-06T06:35:45.172Z,5.60
2017-09-06T06:38:12.700Z,5.82
2017-09-06T06:40:40.224Z,5.20
2017-09-06T06:43:07.740Z,5.62
2017-09-06T06:45:35.278Z,5.45
2017-09-06T06:48:02.840Z,6.25
2017-09-06T06:50:30.406Z,5.80
2017-09-06T06:52:57.996Z,5.72
2017-09-06T06:55:25.520Z,5.90
2017-09-06T06:57:53.070Z,5.70
2017-09-06T07:00:20.641Z,5.70
2017-09-06T07:02:48.184Z,6.45
2017-09-06T07:05:15.927Z,5.07
2017-09-06T07:07:43.445Z,6.00
2017-09-06T07:10:11.229Z,6.30
2017-09-06T07:12:38.998Z,7.18
2017-09-06T07:15:06.531Z,6.53
2017-09-06T07:17:34.146Z,6.62
2017-09-06T07:20:01.697Z,7.72
2017-09-06T07:22:29.210Z,7.80
2017-09-06T07:24:56.748Z,5.70
2017-09-06T07:27:24.303Z,7.68
2017-09-06T07:29:51.831Z,7.60
2017-09-06T07:32:19.344Z,7.93
2017-09-06T07:34:46.845Z,6.37
2017-09-06T07:37:14.361Z,6.80
2017-09-06T07:39:41.857Z,6.97
2017-09-06T07:42:09.381Z,6.70
2017-09-06T07:44:36.893Z,7.67
2017-09-06T07:47:04.407Z,5.70
2017-09-06T07:49:31.898Z,6.60
2017-09-06T07:51:59.415Z,7.43
2017-09-06T07:54:27.001Z,5.53
2017-09-06T07:56:54.540Z,8.37
2017-09-06T07:59:22.064Z,9.60
2017-09-06T08:01:49.585Z,6.40
2017-09-06T08:04:17.106Z,8.00
2017-09-06T08:06:44.613Z,7.60
2017-09-06T08:09:12.124Z,8.60
2017-09-06T08:11:39.641Z,6.53
2017-09-06T08:14:07.174Z,9.33
2017-09-06T08:16:34.749Z,9.30
2017-09-06T08:19:02.274Z,8.00
2017-09-06T08:21:29.800Z,6.87
2017-09-06T08:23:57.360Z,10.23
2017-09-06T08:26:24.874Z,11.57
2017-09-06T08:28:52.420Z,15.17
2017-09-06T08:31:19.947Z,12.67
2017-09-06T08:33:47.454Z,11.57
2017-09-06T08:36:14.984Z,16.40
2017-09-06T08:38:42.512Z,14.10
2017-09-06T08:41:10.076Z,14.90
2017-09-06T08:43:37.593Z,16.47
2017-09-06T08:46:05.112Z,13.50
2017-09-06T08:48:32.620Z,14.60
2017-09-06T08:51:00.203Z,12.23
2017-09-06T08:53:27.726Z,12.03
2017-09-06T08:55:55.241Z,14.53
2017-09-06T08:58:22.742Z,15.93
2017-09-06T09:00:50.272Z,14.70
2017-09-06T09:03:17.802Z,15.67
2017-09-06T09:05:45.345Z,17.40
2017-09-06T09:08:12.858Z,14.83
2017-09-06T09:10:40.415Z,15.50
2017-09-06T09:13:07.926Z,15.00
2017-09-06T09:15:35.445Z,16.23
2017-09-06T09:18:02.953Z,14.67
2017-09-06T09:20:30.495Z,13.63
2017-09-06T09:22:58.037Z,12.47
2017-09-06T09:25:25.575Z,12.73
2017-09-06T09:27:53.147Z,12.57
2017-09-06T09:30:20.797Z,13.70
2017-09-06T09:32:48.467Z,12.10
2017-09-06T09:35:16.172Z,11.90
2017-09-06T09:37:43.738Z,11.67
2017-09-06T09:40:11.287Z,12.03
2017-09-06T09:42:38.832Z,10.20
2017-09-06T09:45:06.361Z,11.73
2017-09-06T09:47:33.884Z,11.60
2017-09-06T09:50:01.412Z,11.27
2017-09-06T09:52:28.960Z,10.80
2017-09-06T09:54:56.467Z,11.17
2017-09-06T09:57:24.032Z,10.77
2017-09-06T09:59:51.565Z,11.00
2017-09-06T10:02:19.146Z,9.77
2017-09-06T10:04:46.694Z,10.40
2017-09-06T10:07:14.273Z,11.90
2017-09-06T10:09:41.831Z,11.10
2017-09-06T10:12:09.348Z,11.03
2017-09-06T10:14:36.885Z,11.10
2017-09-06T10:17:04.455Z,11.20
2017-09-06T10:19:32.022Z,11.77
2017-09-06T10:21:59.572Z,9.93
2017-09-06T10:24:27.113Z,11.33
2017-09-06T10:26:54.601Z,12.07
2017-09-06T10:29:22.171Z,10.73
2017-09-06T10:31:49.734Z,12.40
2017-09-06T10:34:17.244Z,12.77
2017-09-06T10:36:44.752Z,12.63
2017-09-06T10:39:12.293Z,12.30
2017-09-06T10:41:39.788Z,11.07
2017-09-06T10:44:07.314Z,12.03
2017-09-06T10:46:34.841Z,13.17
2017-09-06T10:49:02.380Z,12.40
2017-09-06T10:51:29.913Z,15.03
2017-09-06T10:53:57.428Z,11.60
2017-09-06T10:56:24.939Z,11.40
2017-09-06T10:58:52.451Z,11.53
2017-09-06T11:01:19.977Z,11.27
2017-09-06T11:03:47.473Z,11.67
2017-09-06T11:06:14.983Z,11.70
2017-09-06T11:08:42.493Z,10.43
2017-09-06T11:11:10.035Z,10.10
2017-09-06T11:13:37.556Z,11.63
2017-09-06T11:16:05.080Z,12.17
2017-09-06T11:18:32.611Z,12.17
2017-09-06T11:21:00.136Z,12.30
2017-09-06T11:23:27.659Z,11.77
2017-09-06T11:25:55.192Z,13.70
2017-09-06T11:28:22.754Z,13.23
2017-09-06T11:30:50.272Z,13.70
2017-09-06T11:33:17.777Z,13.87
2017-09-06T11:35:45.300Z,14.00
2017-09-06T11:38:12.827Z,14.73
2017-09-06T11:40:40.353Z,14.33
2017-09-06T11:43:07.859Z,9.90
2017-09-06T11:45:35.365Z,10.13
2017-09-06T11:48:02.874Z,9.87
2017-09-06T11:50:30.428Z,6.40
2017-09-06T11:52:57.932Z,8.77
2017-09-06T11:55:25.517Z,14.33
2017-09-06T11:57:53.047Z,10.53
2017-09-06T12:00:20.572Z,19.33
2017-09-06T12:02:48.104Z,17.00
2017-09-06T12:05:15.630Z,19.07
2017-09-06T12:07:43.178Z,17.50
2017-09-06T12:10:10.766Z,13.97
2017-09-06T12:12:38.312Z,13.80
2017-09-06T12:15:05.897Z,15.20
2017-09-06T12:17:33.492Z,11.33
2017-09-06T12:20:01.029Z,11.93
2017-09-06T12:22:28.569Z,10.77
2017-09-06T12:24:56.100Z,9.60
2017-09-06T12:27:23.910Z,9.90
2017-09-06T12:29:51.441Z,8.57
2017-09-06T12:32:18.972Z,8.17
2017-09-06T12:34:46.524Z,10.07
2017-09-06T12:37:14.049Z,8.90
2017-09-06T12:39:41.566Z,8.90
2017-09-06T12:42:09.084Z,8.00
2017-09-06T12:44:36.623Z,7.37
2017-09-06T12:47:04.132Z,6.97
2017-09-06T12:49:31.660Z,5.90
2017-09-06T12:51:59.501Z,6.10
2017-09-06T12:54:27.099Z,4.60
2017-09-06T12:56:54.582Z,5.27
2017-09-06T12:59:22.119Z,4.60
2017-09-06T13:01:49.634Z,4.97
2017-09-06T13:04:17.150Z,4.50
2017-09-06T13:06:44.644Z,4.07
2017-09-06T13:09:12.180Z,4.60
2017-09-06T13:11:39.908Z,4.90
2017-09-06T13:14:07.491Z,4.40
2017-09-06T13:16:35.024Z,5.87
2017-09-06T13:19:02.541Z,4.80
2017-09-06T13:21:30.098Z,3.80
2017-09-06T13:23:57.830Z,3.47
2017-09-06T13:26:25.371Z,3.00
2017-09-06T13:28:52.905Z,3.67
2017-09-06T13:31:20.419Z,3.70
2017-09-06T13:33:47.936Z,2.50
2017-09-06T13:36:15.483Z,3.53
2017-09-06T13:38:43.031Z,1.70
2017-09-06T13:41:10.592Z,1.50
2017-09-06T13:43:38.112Z,1.67
2017-09-06T13:46:05.643Z,1.37
2017-09-06T13:48:33.254Z,2.05
2017-09-06T13:51:00.818Z,1.33
2017-09-06T13:53:28.347Z,1.23
2017-09-06T13:55:55.883Z,1.20
2017-09-06T13:58:23.391Z,1.00
2017-09-06T14:00:50.910Z,0.95
2017-09-06T14:03:19.193Z,1.77
2017-09-06T14:05:46.720Z,0.93
2017-09-06T14:08:14.223Z,1.45
2017-09-06T14:10:41.735Z,1.23
2017-09-06T14:13:09.265Z,1.37
2017-09-06T14:15:36.757Z,1.00
2017-09-06T14:18:04.279Z,0.90
2017-09-06T14:20:31.828Z,1.12
2017-09-06T14:22:59.362Z,1.15
2017-09-06T14:25:26.860Z,1.62
2017-09-06T14:27:54.419Z,1.27
2017-09-06T14:30:21.926Z,1.75
2017-09-06T14:32:49.451Z,2.15
2017-09-06T14:35:16.979Z,1.98
2017-09-06T14:37:44.515Z,2.97
2017-09-06T14:40:12.044Z,2.20
2017-09-06T14:42:39.594Z,2.40
2017-09-06T14:45:07.084Z,2.80
2017-09-06T14:47:34.672Z,2.75
2017-09-06T14:50:02.243Z,2.40
2017-09-06T14:52:29.835Z,3.15
2017-09-06T14:54:57.355Z,2.45
2017-09-06T14:57:24.878Z,3.45
2017-09-06T14:59:52.407Z,3.50
2017-09-06T15:02:19.939Z,2.35
2017-09-06T15:04:47.454Z,3.00
2017-09-06T15:07:14.963Z,2.15
2017-09-06T15:09:42.459Z,2.75
2017-09-06T15:12:10.012Z,2.20
2017-09-06T15:14:37.553Z,1.90
2017-09-06T15:17:05.031Z,1.80
2017-09-06T15:19:32.535Z,1.80
2017-09-06T15:22:00.047Z,2.33
2017-09-06T15:24:27.554Z,2.25
2017-09-06T15:26:55.064Z,2.20
2017-09-06T15:29:22.575Z,2.83
2017-09-06T15:31:50.084Z,2.75
2017-09-06T15:34:17.683Z,2.00
2017-09-06T15:36:45.197Z,1.90
2017-09-06T15:39:12.714Z,2.10
2017-09-06T15:41:40.246Z,1.80
2017-09-06T15:44:08.075Z,2.00
2017-09-06T15:46:35.635Z,1.92
2017-09-06T15:49:03.160Z,1.70
2017-09-06T15:51:30.682Z,2.05
2017-09-06T15:53:58.219Z,1.35
2017-09-06T15:56:25.774Z,1.70
2017-09-06T15:58:53.302Z,2.97
2017-09-06T16:01:20.805Z,1.85
2017-09-06T16:03:48.352Z,1.55
2017-09-06T16:06:15.902Z,1.60
2017-09-06T16:08:43.420Z,1.70
2017-09-06T16:11:10.928Z,2.45
2017-09-06T16:13:38.491Z,1.75
2017-09-06T16:16:06.043Z,2.87
2017-09-06T16:18:33.609Z,2.53
2017-09-06T16:21:01.235Z,2.65
2017-09-06T16:23:28.777Z,2.37
2017-09-06T16:25:56.280Z,2.87
2017-09-06T16:28:23.827Z,3.17
2017-09-06T16:30:51.316Z,3.50
2017-09-06T16:33:18.856Z,3.50
2017-09-06T16:35:46.364Z,2.65
2017-09-06T16:38:13.867Z,2.85
2017-09-06T16:40:41.369Z,3.83
2017-09-06T16:43:09.722Z,2.90
2017-09-06T16:45:37.265Z,2.58
2017-09-06T16:48:05.028Z,2.80
2017-09-06T16:50:33.514Z,1.98
2017-09-06T16:53:01.071Z,2.53
2017-09-06T16:55:28.595Z,2.72
2017-09-06T16:57:56.188Z,2.53
2017-09-06T17:00:23.772Z,2.80
2017-09-06T17:02:51.303Z,3.75
2017-09-06T17:05:19.165Z,2.67
2017-09-06T17:07:46.713Z,3.95
2017-09-06T17:10:14.251Z,2.60
2017-09-06T17:12:41.818Z,2.60
2017-09-06T17:15:09.315Z,2.75
2017-09-06T17:17:36.893Z,3.17
2017-09-06T17:20:04.531Z,3.65
2017-09-06T17:22:32.113Z,3.60
2017-09-06T17:24:59.712Z,3.37
2017-09-06T17:27:27.224Z,2.97
2017-09-06T17:29:55.034Z,2.97
2017-09-06T17:32:22.887Z,2.67
2017-09-06T17:34:50.404Z,3.28
2017-09-06T17:37:17.960Z,3.22
2017-09-06T17:39:45.523Z,2.92
2017-09-06T17:42:13.079Z,2.75
2017-09-06T17:44:40.742Z,3.22
2017-09-06T17:47:08.341Z,2.15
2017-09-06T17:49:35.949Z,3.20
2017-09-06T17:52:03.532Z,2.90
2017-09-06T17:54:31.276Z,2.72
2017-09-06T17:56:58.866Z,2.80
2017-09-06T17:59:26.451Z,2.95
2017-09-06T18:01:53.971Z,3.00
2017-09-06T18:04:21.635Z,2.90
2017-09-06T18:06:49.250Z,2.85
2017-09-06T18:09:16.916Z,3.08
2017-09-06T18:11:44.404Z,2.60
2017-09-06T18:14:11.996Z,3.45
2017-09-06T18:16:39.580Z,2.83
2017-09-06T18:19:07.064Z,3.37
2017-09-06T18:21:34.679Z,3.40
2017-09-06T18:24:02.493Z,2.80
2017-09-06T18:26:30.224Z,2.53
2017-09-06T18:28:57.718Z,3.40
2017-09-06T18:31:25.291Z,3.90
2017-09-06T18:33:52.834Z,4.32
2017-09-06T18:36:20.455Z,3.10
2017-09-06T18:38:48.042Z,2.97
2017-09-06T18:41:15.691Z,3.15
2017-09-06T18:43:43.258Z,3.20
2017-09-06T18:46:10.805Z,2.97
2017-09-06T18:48:38.560Z,3.50
2017-09-06T18:51:06.887Z,3.97
2017-09-06T18:53:34.532Z,3.30
2017-09-06T18:56:02.095Z,4.25
2017-09-06T18:58:29.747Z,3.20
2017-09-06T19:00:57.496Z,3.12
2017-09-06T19:03:25.054Z,3.85
2017-09-06T19:05:52.623Z,4.00
2017-09-06T19:08:20.181Z,2.85
2017-09-06T19:10:47.680Z,4.20
2017-09-06T19:13:15.219Z,3.45
2017-09-06T19:15:42.748Z,3.92
2017-09-06T19:18:10.401Z,3.85
2017-09-06T19:20:37.953Z,3.95
2017-09-06T19:23:05.466Z,4.05
2017-09-06T19:25:33.006Z,3.80
2017-09-06T19:28:00.575Z,3.70
2017-09-06T19:30:28.173Z,3.53
2017-09-06T19:32:55.851Z,3.45
2017-09-06T19:35:23.352Z,3.65
2017-09-06T19:37:50.978Z,4.00
2017-09-06T19:40:18.496Z,4.10
2017-09-06T19:42:46.014Z,4.05
2017-09-06T19:45:13.615Z,3.83
2017-09-06T19:47:41.147Z,3.80
2017-09-06T19:50:08.688Z,4.57
2017-09-06T19:52:36.190Z,3.75
2017-09-06T19:55:03.710Z,3.75
2017-09-06T19:57:31.277Z,2.92
2017-09-06T19:59:58.820Z,3.80
2017-09-06T20:02:26.353Z,3.60
2017-09-06T20:04:53.867Z,3.72
2017-09-06T20:07:21.535Z,3.28
2017-09-06T20:09:49.057Z,3.92
2017-09-06T20:12:16.594Z,3.20
2017-09-06T20:14:44.139Z,3.60
2017-09-06T20:17:11.676Z,3.47
2017-09-06T20:19:39.221Z,3.30
2017-09-06T20:22:06.868Z,3.25
2017-09-06T20:24:34.595Z,3.53
2017-09-06T20:27:02.110Z,3.28
2017-09-06T20:29:29.700Z,3.15
2017-09-06T20:31:57.228Z,3.17
2017-09-06T20:34:24.776Z,3.20
2017-09-06T20:36:52.331Z,3.87
2017-09-06T20:39:19.948Z,2.53
2017-09-06T20:41:47.455Z,3.00
2017-09-06T20:44:14.965Z,2.90
2017-09-06T20:46:42.471Z,2.85
2017-09-06T20:49:10.019Z,3.60
2017-09-06T20:51:37.531Z,2.70
2017-09-06T20:54:05.058Z,3.05
2017-09-06T20:56:32.585Z,2.85
2017-09-06T20:59:00.108Z,3.10
2017-09-06T21:01:27.639Z,2.83
2017-09-06T21:03:55.326Z,2.62
2017-09-06T21:06:22.918Z,3.65
2017-09-06T21:08:50.414Z,2.90
2017-09-06T21:11:17.976Z,3.17
2017-09-06T21:13:45.576Z,2.70
2017-09-06T21:16:13.434Z,3.28
2017-09-06T21:18:40.950Z,3.25
2017-09-06T21:21:08.492Z,3.65
2017-09-06T21:23:36.008Z,2.95
2017-09-06T21:26:03.566Z,4.03
2017-09-06T21:28:31.179Z,3.20
2017-09-06T21:30:58.719Z,2.65
2017-09-06T21:33:26.218Z,2.80
2017-09-06T21:35:53.838Z,3.05
2017-09-06T21:38:21.423Z,2.95
2017-09-06T21:40:48.964Z,3.17
2017-09-06T21:43:16.703Z,3.65
2017-09-06T21:45:44.383Z,2.95
2017-09-06T21:48:11.921Z,3.15
2017-09-06T21:50:39.512Z,3.42
2017-09-06T21:53:07.047Z,3.35
2017-09-06T21:55:34.611Z,3.17
2017-09-06T21:58:02.161Z,3.58
2017-09-06T22:00:29.701Z,3.47
2017-09-06T22:02:57.306Z,2.95
2017-09-06T22:05:24.860Z,3.05
2017-09-06T22:07:52.409Z,3.72
2017-09-06T22:10:19.939Z,2.90
2017-09-06T22:12:47.440Z,3.50
2017-09-06T22:15:14.952Z,3.28
2017-09-06T22:17:42.499Z,3.42
2017-09-06T22:20:10.004Z,3.42
2017-09-06T22:22:37.537Z,4.03
2017-09-06T22:25:05.086Z,3.70
2017-09-06T22:27:32.596Z,3.35
2017-09-06T22:30:36.279Z,3.70
2017-09-06T22:33:03.812Z,3.08
2017-09-06T22:35:31.329Z,3.60
2017-09-06T22:37:58.892Z,3.08
2017-09-06T22:40:26.421Z,3.60
2017-09-06T22:42:53.999Z,3.45
2017-09-06T22:45:21.502Z,3.60
2017-09-06T22:47:49.013Z,3.35
2017-09-06T22:50:16.525Z,2.95
2017-09-06T22:52:44.045Z,2.78
2017-09-06T22:55:11.596Z,3.20
2017-09-06T22:57:39.458Z,2.78
2017-09-06T23:00:07.000Z,2.40
2017-09-06T23:02:34.538Z,3.15
2017-09-06T23:05:02.061Z,3.20
2017-09-06T23:07:30.196Z,3.58
2017-09-06T23:09:59.214Z,4.75
2017-09-06T23:12:26.790Z,4.10
2017-09-06T23:14:54.839Z,5.72
2017-09-06T23:17:23.008Z,4.00
2017-09-06T23:19:51.389Z,3.53
2017-09-06T23:22:18.916Z,3.15
2017-09-06T23:24:46.427Z,3.25
2017-09-06T23:27:13.909Z,3.55
2017-09-06T23:29:41.460Z,3.47
2017-09-06T23:32:08.966Z,2.97
2017-09-06T23:34:37.252Z,4.37
2017-09-06T23:37:04.749Z,3.20
2017-09-06T23:39:32.231Z,3.40
2017-09-06T23:41:59.742Z,3.55
2017-09-06T23:44:27.239Z,4.35
2017-09-06T23:46:54.775Z,4.10
2017-09-06T23:49:22.934Z,3.58
2017-09-06T23:51:50.451Z,4.40
2017-09-06T23:54:17.946Z,4.10
2017-09-06T23:56:45.456Z,4.43
2017-09-06T23:59:12.953Z,4.00
